Harrington Cda Cs, Prince Edward Island

9:26 AM AST on January 25, 2015 (GMT -0400)
Winsloe Road | Change Station
CLOSE
Current Station
Personal Weather Station
Location: Winsloe South, PRINCE EDWARD ISLAND
Elevation: 200 ft
Nearby Weather Stations

Elev 200 ft 46.30 °N, 63.18 °W | Updated 2 minutes ago

Overcast
Overcast
29.6 °F
Feels Like 24 °F
N
5.0
Wind Variable Wind from WNW
Gusts 9.0 mph

Today is forecast to be nearly the same temperature as yesterday.

Today
High -- | Low -- °F
--% Chance of Precip.
Yesterday
High -- | Low -- °F
Precip. -- in
7:43 AM 5:06 PM
Waxing Crescent, 32% visible
Pressure 29.03 in
Visibility 15.0 miles
Clouds Overcast 1800 ft
Windchill 24 °F
Dew Point 27 °F
Humidity 90%
Rainfall 0.14 in
Snow Depth Not available.
UV 0 out of 12
Pollen Not available.
Air Quality Not available.
Flu Activity Not available.
METAR CYYG 251300Z 26013G26KT 15SM OVC018 M01/M04 A2903 RMK SC8 PRESRR SLP831

More Conditions Fewer Conditions

Pressure 29.03 in
Visibility 15.0 miles
Clouds Overcast 1800 ft
Windchill 24 °F
Dew Point 27 °F
Humidity 90%
Rainfall 0.14 in
Snow Depth Not available.
UV 0 out of 12
Pollen Not available.
Air Quality Not available.
Flu Activity Not available.
METAR CYYG 251300Z 26013G26KT 15SM OVC018 M01/M04 A2903 RMK SC8 PRESRR SLP831

More Conditions Fewer Conditions

10-Day Weather Forecast

Almanac

Astronomy

Jan. 25, 2015 Rise Set
Actual Time
Civil Twilight
Nautical Twilight
Astronomical Twilight
Moon
Length of Visible Light
Length of Day
Tomorrow will be .
, % of the Moon is Illuminated

Today's Extremes

Country Highs Country Lows

Community

WunderPhotos

Upload Photos

1,789,881 photos uploaded!

WunderBlogs® & News

Nearby

Air Quality

  Air Quality AQ Index Pollutant
Not available.

Snow Depth

Station Depth Elevation

Earthquake Activity

City Distance Mag. Time & Date
Minimum magnitude displayed is 2.5.

Coastal Water Temperatures

Place Temperature

Nearby Weather Stations